Time;durP1;ratioP1;P1;durP2;ratioP2;P2;SDS_P1;SDS_P2;PMS_P1;PMS_P2;Temp;Humidity;BMP_temperature;BMP_pressure;BME280_temperature;BME280_humidity;BME280_pressure;Samples;Min_cycle;Max_cycle;Signal;HPM_P1;HPM_P2
2022/07/27 00:02:17;;;;;;;3.47;2.03;;;23.80;47.80;24.80;101069.00;;;;5088884;28;20175;-41
2022/07/27 00:04:43;;;;;;;2.10;1.83;;;23.80;47.60;24.80;101063.00;;;;5089140;28;20203;-41
2022/07/27 00:07:09;;;;;;;3.03;2.00;;;23.80;47.70;24.80;101061.00;;;;5088526;28;20376;-41
2022/07/27 00:09:34;;;;;;;5.20;2.30;;;23.80;47.80;24.80;101060.00;;;;5088917;28;20191;-41
2022/07/27 00:12:00;;;;;;;3.10;1.90;;;23.80;47.80;24.80;101066.00;;;;5071338;28;20651;-40
2022/07/27 00:14:26;;;;;;;3.07;1.90;;;23.80;47.70;24.80;101071.00;;;;5091493;28;20256;-41
2022/07/27 00:16:52;;;;;;;2.57;2.00;;;23.80;48.20;24.80;101061.00;;;;5088725;28;20206;-41
2022/07/27 00:19:17;;;;;;;2.97;2.10;;;23.80;47.90;24.80;101067.00;;;;5071415;28;20208;-41
2022/07/27 00:21:43;;;;;;;2.73;1.83;;;23.70;48.00;24.80;101065.00;;;;5089472;28;20169;-41
2022/07/27 00:24:09;;;;;;;2.60;1.87;;;23.80;48.30;24.80;101068.00;;;;5089552;28;20169;-41
2022/07/27 00:26:35;;;;;;;2.17;1.70;;;23.70;48.40;24.70;101068.00;;;;5089082;28;20627;-41
2022/07/27 00:29:00;;;;;;;4.13;1.80;;;23.70;48.10;24.70;101061.00;;;;5092336;28;20199;-41
2022/07/27 00:31:26;;;;;;;3.13;2.10;;;23.70;48.00;24.70;101072.00;;;;5110440;28;20183;-41
2022/07/27 00:33:52;;;;;;;3.00;1.80;;;23.70;48.00;24.70;101073.00;;;;5108875;28;20195;-41
2022/07/27 00:36:17;;;;;;;3.97;2.20;;;23.60;47.80;24.70;101065.00;;;;5091518;28;20168;-40
2022/07/27 00:38:43;;;;;;;3.17;1.90;;;23.60;48.60;24.70;101066.00;;;;5070537;28;20196;-41
2022/07/27 00:41:10;;;;;;;2.57;1.90;;;23.60;48.00;24.60;101071.00;;;;5092619;28;20172;-40
2022/07/27 00:43:57;;;;;;;4.23;2.00;;;23.60;48.20;24.70;101070.00;;;;5093015;28;20179;-40
2022/07/27 00:46:23;;;;;;;3.50;1.90;;;23.60;48.10;24.60;101067.00;;;;5092570;28;20184;-41
2022/07/27 00:48:49;;;;;;;3.43;2.00;;;23.60;48.00;24.60;101078.00;;;;5092287;28;20217;-40
2022/07/27 00:51:16;;;;;;;3.23;2.00;;;23.60;48.10;24.60;101073.00;;;;5092702;28;20626;-41
2022/07/27 00:53:42;;;;;;;2.27;1.97;;;23.60;47.90;24.60;101067.00;;;;5074734;28;20230;-41
2022/07/27 00:56:07;;;;;;;2.40;1.80;;;23.60;48.10;24.60;101072.00;;;;5074456;28;20176;-40
2022/07/27 00:58:34;;;;;;;3.67;1.93;;;23.60;48.00;24.60;101070.00;;;;5073905;28;20232;-41
2022/07/27 01:01:00;;;;;;;3.87;2.00;;;23.60;48.10;24.60;101068.00;;;;5074465;28;20208;-41
2022/07/27 01:03:26;;;;;;;3.10;1.90;;;23.60;48.10;24.60;101069.00;;;;5091903;28;20678;-41
2022/07/27 01:05:52;;;;;;;3.87;2.00;;;23.60;48.30;24.60;101069.00;;;;5092379;28;20204;-42
2022/07/27 01:08:18;;;;;;;3.13;2.00;;;23.60;48.40;24.50;101063.00;;;;5091829;28;20196;-40
2022/07/27 01:10:43;;;;;;;3.50;2.10;;;23.60;48.40;24.50;101064.00;;;;5092092;28;20199;-41
2022/07/27 01:13:09;;;;;;;2.37;1.97;;;23.60;48.40;24.50;101065.00;;;;5092089;28;20173;-42
2022/07/27 01:15:36;;;;;;;3.77;1.80;;;23.50;48.20;24.50;101062.00;;;;5092348;28;20193;-41
2022/07/27 01:18:02;;;;;;;2.73;1.90;;;23.50;48.40;24.50;101060.00;;;;5073632;28;20209;-40
2022/07/27 01:20:28;;;;;;;2.20;1.67;;;23.50;48.60;24.50;101063.00;;;;5092098;28;20173;-41
2022/07/27 01:22:53;;;;;;;2.37;1.83;;;23.40;48.40;24.40;101070.00;;;;5092362;28;20169;-40
2022/07/27 01:25:19;;;;;;;3.03;1.80;;;23.40;48.40;24.40;101063.00;;;;5092418;28;20226;-41
2022/07/27 01:27:45;;;;;;;3.50;1.90;;;23.40;48.60;24.40;101070.00;;;;5091691;28;20276;-40
2022/07/27 01:30:26;;;;;;;2.67;1.83;;;23.30;48.50;24.40;101068.00;;;;5092029;28;20327;-41
2022/07/27 01:33:02;;;;;;;3.97;1.90;;;23.30;48.60;24.30;101077.00;;;;5092010;28;20154;-41
2022/07/27 01:35:28;;;;;;;3.00;2.00;;;23.30;48.50;24.30;101062.00;;;;5073701;28;20642;-41
2022/07/27 01:37:54;;;;;;;3.07;1.70;;;23.30;48.50;24.30;101063.00;;;;5091348;28;20270;-40
2022/07/27 01:40:21;;;;;;;2.70;1.80;;;23.30;48.60;24.30;101062.00;;;;5091531;28;20165;-41
2022/07/27 01:42:46;;;;;;;3.43;1.90;;;23.30;48.70;24.30;101064.00;;;;5091139;28;20173;-41
2022/07/27 01:45:12;;;;;;;2.07;1.70;;;23.40;48.80;24.30;101064.00;;;;5091158;28;20217;-41
2022/07/27 01:47:38;;;;;;;3.40;1.77;;;23.30;48.70;24.30;101069.00;;;;5091035;28;20196;-41
2022/07/27 01:50:04;;;;;;;3.50;2.10;;;23.30;48.70;24.30;101063.00;;;;5091017;28;20183;-41
2022/07/27 01:52:30;;;;;;;3.27;2.00;;;23.30;49.10;24.30;101058.00;;;;5091362;28;20173;-41
2022/07/27 01:54:56;;;;;;;3.17;2.00;;;23.30;49.00;24.30;101058.00;;;;5091272;28;20184;-40
2022/07/27 01:57:22;;;;;;;3.20;1.77;;;23.20;49.10;24.20;101067.00;;;;5091274;28;20212;-41
2022/07/27 01:59:47;;;;;;;3.13;2.00;;;23.20;49.20;24.20;101059.00;;;;5091213;28;20666;-40
2022/07/27 02:02:14;;;;;;;2.07;1.70;;;23.20;49.30;24.20;101056.00;;;;5091072;28;20167;-41
2022/07/27 02:04:41;;;;;;;2.60;1.80;;;23.10;49.20;24.20;101063.00;;;;5094902;28;20173;-40
2022/07/27 02:07:07;;;;;;;2.93;1.97;;;23.10;49.40;24.20;101061.00;;;;5094262;28;20567;-41
2022/07/27 02:09:33;;;;;;;3.63;2.10;;;23.20;49.40;24.10;101058.00;;;;5073070;28;20184;-40
2022/07/27 02:15:09;;;;;;;2.13;1.90;;;23.20;49.40;24.10;101072.00;;;;5008749;28;20183;-41
2022/07/27 02:17:35;;;;;;;3.90;1.73;;;23.10;49.50;24.10;101077.00;;;;5008083;28;20211;-41
2022/07/27 02:20:02;;;;;;;3.73;1.90;;;23.10;49.60;24.10;101065.00;;;;5050042;28;20185;-40
2022/07/27 02:22:28;;;;;;;2.80;1.90;;;23.10;49.60;24.10;101059.00;;;;5091231;28;20177;-41
2022/07/27 02:24:54;;;;;;;3.07;1.93;;;23.10;49.60;24.10;101053.00;;;;5093464;28;20181;-40
2022/07/27 02:27:19;;;;;;;2.00;1.80;;;23.10;49.60;24.10;101056.00;;;;5094885;28;20275;-40
2022/07/27 02:29:45;;;;;;;1.93;1.60;;;23.10;49.50;24.10;101049.00;;;;5093181;28;20177;-41
2022/07/27 02:32:11;;;;;;;2.23;1.80;;;23.10;49.50;24.10;101053.00;;;;5091726;28;20786;-41
2022/07/27 02:34:37;;;;;;;2.30;2.10;;;23.10;49.50;24.00;101063.00;;;;5090721;28;20529;-40
2022/07/27 02:37:02;;;;;;;3.83;2.00;;;23.00;49.60;24.00;101066.00;;;;5095023;28;20204;-41
2022/07/27 02:39:28;;;;;;;2.23;1.70;;;23.00;49.50;24.00;101059.00;;;;5097077;28;20250;-41
2022/07/27 02:41:54;;;;;;;2.23;1.80;;;23.00;49.50;24.00;101066.00;;;;5096833;28;20176;-41
2022/07/27 02:44:20;;;;;;;3.37;1.93;;;23.00;49.50;24.00;101061.00;;;;5093060;28;20177;-41
2022/07/27 02:46:45;;;;;;;2.43;1.80;;;23.00;49.40;24.00;101065.00;;;;5090502;28;20173;-41
2022/07/27 02:49:11;;;;;;;3.37;1.77;;;23.00;49.50;23.90;101058.00;;;;5090069;28;20188;-41
2022/07/27 02:51:37;;;;;;;3.17;1.90;;;22.90;49.40;23.90;101064.00;;;;5090158;28;20173;-41
2022/07/27 02:54:03;;;;;;;4.27;2.00;;;22.90;49.30;23.90;101062.00;;;;5089953;28;20184;-41
2022/07/27 02:56:28;;;;;;;4.37;1.90;;;22.90;49.60;23.90;101063.00;;;;5090248;28;20176;-40
2022/07/27 02:58:54;;;;;;;3.20;1.70;;;22.90;49.50;23.90;101062.00;;;;5090170;28;20970;-40
2022/07/27 03:01:20;;;;;;;4.43;1.60;;;22.90;49.40;23.90;101071.00;;;;5089662;28;20177;-41
2022/07/27 03:03:46;;;;;;;3.03;1.80;;;22.90;49.30;23.90;101074.00;;;;5089573;28;20207;-41
2022/07/27 03:06:12;;;;;;;3.23;1.80;;;22.90;49.50;23.90;101074.00;;;;5090005;28;20234;-40
2022/07/27 03:08:38;;;;;;;3.37;2.00;;;22.90;49.50;23.80;101072.00;;;;5089671;28;20200;-40
2022/07/27 03:11:04;;;;;;;1.90;1.60;;;22.90;49.60;23.80;101075.00;;;;5089795;28;20228;-43
2022/07/27 03:13:30;;;;;;;2.63;1.90;;;22.90;49.60;23.80;101073.00;;;;5089932;28;20173;-41
2022/07/27 03:15:56;;;;;;;1.93;1.50;;;22.90;49.70;23.80;101073.00;;;;5089654;28;20173;-40
2022/07/27 03:18:21;;;;;;;2.03;1.80;;;22.90;49.80;23.80;101070.00;;;;5089541;28;20208;-40
2022/07/27 03:20:47;;;;;;;2.10;1.70;;;22.80;49.80;23.80;101068.00;;;;5089937;28;20651;-41
2022/07/27 03:23:13;;;;;;;2.17;1.73;;;22.80;49.80;23.70;101077.00;;;;5090043;28;20176;-40
2022/07/27 03:25:38;;;;;;;2.47;1.60;;;22.80;49.80;23.70;101076.00;;;;5089586;28;20239;-41
2022/07/27 03:28:04;;;;;;;1.90;1.80;;;22.80;49.80;23.70;101073.00;;;;5088872;28;20817;-40
2022/07/27 03:30:31;;;;;;;2.83;1.80;;;22.80;49.90;23.70;101074.00;;;;5089414;28;20172;-42
2022/07/27 03:32:57;;;;;;;4.27;1.77;;;22.80;50.10;23.70;101074.00;;;;5089600;28;20164;-41
2022/07/27 03:35:23;;;;;;;2.93;1.93;;;22.80;50.10;23.70;101078.00;;;;5089381;28;20176;-40
2022/07/27 03:37:48;;;;;;;3.87;1.83;;;22.80;49.90;23.70;101071.00;;;;5089064;28;20709;-42
2022/07/27 03:40:14;;;;;;;3.50;2.10;;;22.80;49.90;23.70;101067.00;;;;5089335;28;20674;-40
2022/07/27 03:42:40;;;;;;;4.73;4.23;;;22.80;49.90;23.70;101070.00;;;;5089417;28;20173;-42
2022/07/27 03:45:07;;;;;;;4.30;3.00;;;22.80;50.00;23.70;101073.00;;;;5089140;28;20543;-42
2022/07/27 03:47:33;;;;;;;3.87;2.33;;;22.80;50.10;23.70;101074.00;;;;5089049;28;20224;-42
2022/07/27 03:49:58;;;;;;;4.03;2.10;;;22.80;50.10;23.70;101055.00;;;;5089571;28;20200;-42
2022/07/27 03:52:24;;;;;;;3.50;2.00;;;22.80;50.20;23.70;101016.00;;;;5098194;28;20313;-42
2022/07/27 03:54:50;;;;;;;2.80;1.93;;;22.80;50.20;23.70;101084.00;;;;5103786;28;20165;-41
2022/07/27 03:57:16;;;;;;;2.87;2.03;;;22.80;50.10;23.70;101083.00;;;;5099156;28;20283;-41
2022/07/27 03:59:41;;;;;;;2.60;2.00;;;22.80;50.00;23.60;101079.00;;;;5089532;28;20168;-41
2022/07/27 04:02:07;;;;;;;3.33;2.10;;;22.80;50.00;23.60;101080.00;;;;5089567;28;20161;-41
2022/07/27 04:04:33;;;;;;;2.43;2.00;;;22.80;50.10;23.60;101090.00;;;;5089545;28;20168;-41
2022/07/27 04:06:58;;;;;;;3.07;1.93;;;22.70;50.00;23.60;101087.00;;;;5089116;28;20230;-42
2022/07/27 04:09:24;;;;;;;2.80;1.90;;;22.70;50.10;23.60;101090.00;;;;5088894;28;20189;-41
2022/07/27 04:11:50;;;;;;;2.77;2.20;;;22.70;50.10;23.60;101086.00;;;;5085992;28;20183;-41
2022/07/27 04:14:16;;;;;;;2.10;1.90;;;22.70;50.10;23.60;101084.00;;;;5092577;28;20186;-40
2022/07/27 04:16:42;;;;;;;1.70;1.60;;;22.70;50.10;23.50;101086.00;;;;5092350;28;20190;-41
2022/07/27 04:19:07;;;;;;;2.57;1.70;;;22.70;50.20;23.50;101087.00;;;;5093334;28;20537;-41
2022/07/27 04:21:34;;;;;;;2.10;1.97;;;22.70;50.20;23.50;101087.00;;;;5092773;28;20658;-42
2022/07/27 04:24:00;;;;;;;3.50;1.93;;;22.70;50.40;23.50;101100.00;;;;5092978;28;20255;-41
2022/07/27 04:26:26;;;;;;;3.70;2.10;;;22.60;50.30;23.50;101089.00;;;;5092407;28;20165;-41
2022/07/27 04:28:52;;;;;;;2.40;1.80;;;22.60;50.40;23.50;101084.00;;;;5092439;28;20185;-42
2022/07/27 04:31:18;;;;;;;2.37;1.70;;;22.60;50.20;23.50;101094.00;;;;5092566;28;20173;-41
2022/07/27 04:33:44;;;;;;;2.50;1.97;;;22.60;50.30;23.50;101093.00;;;;5094577;28;20165;-42
2022/07/27 04:36:09;;;;;;;3.33;2.00;;;22.60;50.40;23.50;101092.00;;;;5096929;28;20841;-41
2022/07/27 04:38:35;;;;;;;4.00;1.80;;;22.50;50.40;23.40;101091.00;;;;5094291;28;20232;-42
2022/07/27 04:41:01;;;;;;;2.50;1.90;;;22.50;50.40;23.40;101096.00;;;;5092874;28;20168;-40
2022/07/27 04:43:26;;;;;;;2.00;1.80;;;22.50;50.30;23.40;101089.00;;;;5092216;28;20169;-42
2022/07/27 04:45:52;;;;;;;3.80;1.93;;;22.50;50.40;23.40;101094.00;;;;5092080;28;20169;-41
2022/07/27 04:48:18;;;;;;;3.53;1.83;;;22.50;50.40;23.40;101090.00;;;;5092277;28;20192;-41
2022/07/27 04:50:45;;;;;;;3.47;2.17;;;22.50;50.40;23.40;101101.00;;;;5092044;28;20658;-42
2022/07/27 04:53:12;;;;;;;3.50;2.10;;;22.50;50.50;23.40;101103.00;;;;5091163;28;20199;-40
2022/07/27 04:55:41;;;;;;;2.50;1.80;;;22.40;50.40;23.40;101107.00;;;;5092171;28;20667;-42
2022/07/27 04:58:06;;;;;;;2.03;1.73;;;22.40;50.40;23.30;101107.00;;;;5091875;28;20276;-40
2022/07/27 05:00:32;;;;;;;3.20;2.00;;;22.40;50.50;23.30;101110.00;;;;5091710;28;20252;-42
2022/07/27 05:02:58;;;;;;;3.13;1.77;;;22.40;50.50;23.30;101104.00;;;;5091867;28;20169;-40
2022/07/27 05:05:24;;;;;;;4.53;2.17;;;22.40;50.70;23.30;101111.00;;;;5091710;28;20161;-42
2022/07/27 05:07:49;;;;;;;5.07;2.40;;;22.40;50.60;23.30;101119.00;;;;5091245;28;20189;-41
2022/07/27 05:10:15;;;;;;;3.20;2.20;;;22.40;50.70;23.20;101115.00;;;;5091449;28;20198;-42
2022/07/27 05:12:41;;;;;;;4.57;2.10;;;22.30;50.80;23.30;101122.00;;;;5091907;28;20202;-42
2022/07/27 05:15:08;;;;;;;4.53;2.17;;;22.30;50.80;23.30;101126.00;;;;5091676;28;20169;-42
2022/07/27 05:17:34;;;;;;;3.93;2.27;;;22.40;51.00;23.20;101129.00;;;;5091339;28;20212;-41
2022/07/27 05:19:59;;;;;;;4.90;2.37;;;22.30;51.00;23.20;101131.00;;;;5091329;28;20311;-40
2022/07/27 05:22:25;;;;;;;3.10;2.20;;;22.30;51.30;23.20;101133.00;;;;5091731;28;20247;-40
2022/07/27 05:24:51;;;;;;;4.80;2.23;;;22.30;51.10;23.20;101132.00;;;;5093414;28;20192;-41
2022/07/27 05:27:17;;;;;;;2.97;2.33;;;22.20;51.10;23.20;101128.00;;;;5095405;28;20558;-41
2022/07/27 05:29:42;;;;;;;3.67;2.47;;;22.20;51.30;23.20;101130.00;;;;5093295;28;20176;-41
2022/07/27 05:32:08;;;;;;;2.87;2.33;;;22.20;51.40;23.10;101132.00;;;;5091400;28;20218;-41
2022/07/27 05:34:34;;;;;;;4.47;2.30;;;22.20;51.30;23.10;101125.00;;;;5091592;28;20168;-40
2022/07/27 05:37:01;;;;;;;3.10;2.20;;;22.20;51.40;23.10;101131.00;;;;5091253;28;20681;-41
2022/07/27 05:39:26;;;;;;;2.30;2.10;;;22.20;51.20;23.10;101129.00;;;;5091689;28;20161;-41
2022/07/27 05:41:52;;;;;;;4.07;2.30;;;22.20;51.20;23.10;101134.00;;;;5090924;28;20222;-40
2022/07/27 05:44:18;;;;;;;2.37;2.00;;;22.20;51.30;23.10;101138.00;;;;5090937;28;20732;-40
2022/07/27 05:46:44;;;;;;;3.37;2.33;;;22.20;51.30;23.00;101146.00;;;;5085099;28;20180;-41
2022/07/27 05:49:09;;;;;;;3.87;2.27;;;22.20;51.50;23.00;101144.00;;;;5090996;28;20176;-41
2022/07/27 05:51:35;;;;;;;3.73;2.40;;;22.20;51.50;23.00;101151.00;;;;5091041;28;20173;-40
2022/07/27 05:54:01;;;;;;;2.47;2.03;;;22.20;51.60;23.00;101155.00;;;;5091301;28;20165;-40
2022/07/27 05:56:27;;;;;;;2.83;2.30;;;22.10;51.40;23.00;101163.00;;;;5090776;28;20734;-41
2022/07/27 05:58:53;;;;;;;3.37;2.30;;;22.20;51.60;23.00;101164.00;;;;5090599;28;20232;-40
2022/07/27 06:01:18;;;;;;;4.27;2.47;;;22.10;51.50;23.00;101155.00;;;;5090708;28;20169;-41
2022/07/27 06:03:44;;;;;;;5.40;2.80;;;22.10;51.60;23.00;101152.00;;;;5090814;28;20169;-40
2022/07/27 06:08:54;;;;;;;6.00;2.63;;;22.10;52.30;23.00;101155.00;;;;5090105;28;20697;-40
2022/07/27 06:11:20;;;;;;;4.00;2.77;;;22.00;52.60;22.90;101159.00;;;;5090459;28;20181;-41
2022/07/27 06:13:46;;;;;;;3.47;2.50;;;22.00;52.30;22.90;101166.00;;;;5090872;28;20172;-41
2022/07/27 06:16:12;;;;;;;3.80;2.30;;;22.00;52.00;22.90;101164.00;;;;5090662;28;20181;-42
2022/07/27 06:18:37;;;;;;;3.87;2.43;;;22.00;52.00;22.90;101161.00;;;;5091268;28;20251;-41
2022/07/27 06:21:03;;;;;;;3.23;2.30;;;22.00;52.30;22.90;101164.00;;;;5092987;28;20169;-42
2022/07/27 06:23:29;;;;;;;3.90;2.57;;;22.00;52.30;22.90;101175.00;;;;5092072;28;20180;-41
2022/07/27 06:25:56;;;;;;;2.47;2.10;;;22.00;52.30;22.90;101164.00;;;;5090392;28;20173;-39
2022/07/27 06:28:21;;;;;;;4.83;2.40;;;22.00;52.20;22.80;101179.00;;;;5090412;28;20197;-41
2022/07/27 06:30:48;;;;;;;3.30;2.23;;;22.00;52.30;22.80;101172.00;;;;5090124;28;20161;-41
2022/07/27 06:33:14;;;;;;;2.63;2.07;;;21.90;52.20;22.80;101165.00;;;;5090056;28;20165;-40
2022/07/27 06:35:40;;;;;;;3.13;2.00;;;22.00;52.40;22.80;101170.00;;;;5090130;28;20411;-42
2022/07/27 06:38:07;;;;;;;2.77;2.23;;;21.90;52.30;22.80;101161.00;;;;5088509;28;20207;-41
2022/07/27 06:40:32;;;;;;;3.53;2.10;;;21.90;52.40;22.80;101168.00;;;;5088564;28;20195;-41
2022/07/27 06:42:58;;;;;;;2.07;1.87;;;21.90;52.40;22.70;101173.00;;;;5090336;28;20209;-41
2022/07/27 06:45:24;;;;;;;3.57;2.50;;;21.90;52.40;22.70;101178.00;;;;5090151;28;20184;-41
2022/07/27 06:47:50;;;;;;;3.43;2.00;;;21.90;53.00;22.70;101168.00;;;;5088733;28;20546;-41
2022/07/27 06:50:17;;;;;;;4.60;2.00;;;21.80;52.20;22.70;101167.00;;;;5089751;28;20173;-42
2022/07/27 06:52:43;;;;;;;2.90;1.90;;;21.90;52.20;22.70;101164.00;;;;5090101;28;20165;-41
2022/07/27 06:55:09;;;;;;;5.47;2.00;;;21.80;51.90;22.70;101169.00;;;;5090196;28;20549;-41
2022/07/27 06:57:35;;;;;;;6.33;2.10;;;21.80;51.70;22.60;101174.00;;;;5089471;28;20761;-41
2022/07/27 07:00:00;;;;;;;4.00;1.93;;;21.80;51.70;22.60;101170.00;;;;5089729;28;20549;-41
2022/07/27 07:02:26;;;;;;;2.43;1.80;;;21.80;51.70;22.60;101172.00;;;;5089666;28;20658;-41
2022/07/27 07:04:52;;;;;;;3.53;1.80;;;21.80;51.70;22.60;101165.00;;;;5089434;28;20177;-41
2022/07/27 07:07:18;;;;;;;2.93;1.90;;;21.80;51.70;22.60;101170.00;;;;5088975;28;20200;-40
2022/07/27 07:09:44;;;;;;;2.00;1.80;;;21.80;51.70;22.60;101175.00;;;;5088354;28;20237;-43
2022/07/27 07:12:10;;;;;;;2.40;1.63;;;21.80;51.70;22.60;101175.00;;;;5090839;28;20180;-41
2022/07/27 07:14:36;;;;;;;2.67;1.60;;;21.80;51.70;22.60;101172.00;;;;5110406;28;20192;-41
2022/07/27 07:17:01;;;;;;;2.27;1.70;;;21.80;51.60;22.60;101172.00;;;;5108316;28;20277;-41
2022/07/27 07:19:27;;;;;;;4.03;1.90;;;21.80;51.60;22.60;101183.00;;;;5096111;28;20196;-41
2022/07/27 07:21:53;;;;;;;2.27;1.60;;;21.80;51.40;22.50;101179.00;;;;5032870;28;20196;-41
2022/07/27 07:24:19;;;;;;;3.57;2.00;;;21.70;51.00;22.50;101175.00;;;;5089051;28;20234;-41
2022/07/27 07:26:44;;;;;;;2.53;1.50;;;21.70;50.90;22.50;101166.00;;;;5089242;28;20173;-41
2022/07/27 07:29:10;;;;;;;2.03;1.80;;;21.70;50.90;22.40;101177.00;;;;5089273;28;20644;-43
2022/07/27 07:31:36;;;;;;;4.17;1.87;;;21.70;50.90;22.50;101171.00;;;;5089587;28;20177;-40
2022/07/27 07:34:02;;;;;;;2.07;1.70;;;21.80;51.00;22.50;101184.00;;;;5089600;28;20173;-40
2022/07/27 07:36:28;;;;;;;2.30;1.90;;;21.80;51.00;22.50;101182.00;;;;5088912;28;20173;-41
2022/07/27 07:38:54;;;;;;;3.90;1.80;;;21.80;51.00;22.40;101180.00;;;;5083957;28;20205;-41
2022/07/27 07:41:23;;;;;;;3.67;1.80;;;21.90;51.00;22.40;101182.00;;;;5071678;28;20179;-41
2022/07/27 07:43:49;;;;;;;2.27;1.70;;;21.70;50.90;22.40;101175.00;;;;5072158;28;20184;-41
2022/07/27 07:46:15;;;;;;;1.60;1.50;;;21.80;50.90;22.40;101174.00;;;;5068445;28;20166;-41
2022/07/27 07:48:42;;;;;;;3.57;1.80;;;21.80;50.80;22.40;101179.00;;;;5067566;28;20219;-41
2022/07/27 07:51:09;;;;;;;3.30;1.70;;;21.80;50.80;22.30;101173.00;;;;5069150;28;20174;-40
2022/07/27 07:53:34;;;;;;;3.83;1.80;;;21.70;50.10;22.30;101168.00;;;;5082144;28;20180;-41
2022/07/27 07:56:01;;;;;;;3.50;1.70;;;21.70;50.30;22.30;101178.00;;;;5069465;28;20276;-41
2022/07/27 07:58:27;;;;;;;2.97;1.80;;;21.70;50.20;22.30;101164.00;;;;5068451;28;20209;-41
2022/07/27 08:00:53;;;;;;;1.97;1.70;;;21.70;50.10;22.20;101165.00;;;;5068576;28;20176;-41
2022/07/27 08:03:19;;;;;;;2.20;1.60;;;21.60;49.80;22.20;101171.00;;;;5068392;28;20251;-41
2022/07/27 08:05:45;;;;;;;2.97;1.73;;;21.60;50.30;22.20;101189.00;;;;5070782;28;20173;-41
2022/07/27 08:08:11;;;;;;;3.23;1.80;;;21.60;50.20;22.30;101164.00;;;;5070101;28;20261;-41
2022/07/27 08:10:36;;;;;;;1.83;1.33;;;21.70;50.30;22.30;101183.00;;;;5078834;28;20279;-41
2022/07/27 08:13:03;;;;;;;5.40;1.70;;;21.70;50.50;22.30;101183.00;;;;5089244;28;20285;-42
2022/07/27 08:15:29;;;;;;;2.07;1.80;;;21.70;50.70;22.20;101174.00;;;;5089553;28;20662;-41
2022/07/27 08:17:55;;;;;;;2.40;1.90;;;21.60;50.40;22.30;101191.00;;;;5088669;28;20212;-41
2022/07/27 08:20:23;;;;;;;4.23;2.00;;;21.60;50.30;22.30;101178.00;;;;5088843;28;20671;-41
2022/07/27 08:22:48;;;;;;;2.50;1.90;;;21.70;50.20;22.30;101179.00;;;;5088669;28;20187;-41
2022/07/27 08:25:14;;;;;;;2.47;1.90;;;21.60;50.20;22.30;101185.00;;;;5088798;28;20169;-42
2022/07/27 08:27:40;;;;;;;2.13;1.80;;;21.60;50.30;22.30;101192.00;;;;5088763;28;20200;-41
2022/07/27 08:30:07;;;;;;;2.07;1.63;;;21.60;50.90;22.20;101193.00;;;;5087741;28;20776;-41
2022/07/27 08:32:43;;;;;;;2.10;1.73;;;21.60;50.00;22.20;101183.00;;;;5091440;28;20169;-40
2022/07/27 08:35:09;;;;;;;1.87;1.50;;;21.70;50.00;22.20;101193.00;;;;5091701;28;20658;-41
2022/07/27 08:37:35;;;;;;;2.13;1.67;;;21.70;49.70;22.20;101195.00;;;;5088654;28;20209;-41
2022/07/27 08:40:01;;;;;;;2.93;2.00;;;21.60;49.70;22.20;101192.00;;;;5088722;28;20176;-41
2022/07/27 08:42:26;;;;;;;2.63;2.00;;;21.60;49.60;22.20;101190.00;;;;5088778;28;20179;-41
2022/07/27 08:44:52;;;;;;;2.80;1.90;;;21.60;49.90;22.20;101191.00;;;;5088218;28;20184;-41
2022/07/27 08:47:18;;;;;;;2.60;1.83;;;21.60;50.00;22.30;101206.00;;;;5086938;28;20193;-41
2022/07/27 08:49:43;;;;;;;2.90;1.87;;;21.60;50.10;22.30;101202.00;;;;5087610;28;20551;-40
2022/07/27 08:52:10;;;;;;;2.57;1.70;;;21.60;50.10;22.30;101197.00;;;;5087649;28;20176;-41
2022/07/27 08:54:39;;;;;;;2.53;1.87;;;21.60;50.40;22.30;101193.00;;;;5087533;28;20188;-41
2022/07/27 08:57:08;;;;;;;2.13;1.63;;;21.60;50.50;22.30;101190.00;;;;5088116;28;20227;-41
2022/07/27 08:59:35;;;;;;;2.67;1.80;;;21.60;50.50;22.30;101195.00;;;;5087491;28;20196;-41
2022/07/27 09:02:00;;;;;;;2.37;1.67;;;21.70;50.80;22.10;101195.00;;;;5091024;28;20201;-41
2022/07/27 09:04:26;;;;;;;2.63;1.80;;;21.70;50.20;22.30;101197.00;;;;5092007;28;20211;-42
2022/07/27 09:06:52;;;;;;;3.27;1.70;;;21.60;50.00;22.30;101193.00;;;;5090422;28;20809;-42
2022/07/27 09:09:19;;;;;;;3.83;2.00;;;21.60;49.90;22.30;101198.00;;;;5091959;28;20222;-43
2022/07/27 09:12:08;;;;;;;2.07;1.80;;;21.60;49.90;22.30;101201.00;;;;5038263;28;20649;-41
2022/07/27 09:14:36;;;;;;;2.23;1.70;;;21.60;50.10;22.30;101199.00;;;;5090487;28;20192;-41
2022/07/27 09:17:26;;;;;;;2.90;1.80;;;21.60;50.40;22.30;101192.00;;;;5091380;28;20205;-42
2022/07/27 09:20:02;;;;;;;3.03;1.90;;;21.60;50.40;22.30;101183.00;;;;5092271;28;20588;-41
2022/07/27 09:22:51;;;;;;;2.53;1.60;;;21.60;50.40;22.30;101192.00;;;;5091751;28;20171;-41
2022/07/27 09:25:25;;;;;;;2.93;1.77;;;21.60;50.50;22.30;101196.00;;;;5091461;28;20180;-41
2022/07/27 09:27:57;;;;;;;3.83;1.60;;;21.60;50.30;22.30;101184.00;;;;5090682;28;20196;-41
2022/07/27 09:30:23;;;;;;;2.23;1.60;;;21.60;50.10;22.30;101187.00;;;;5073588;28;20724;-41
2022/07/27 09:32:54;;;;;;;2.00;1.70;;;21.50;50.40;22.30;101187.00;;;;5071481;28;20181;-41
2022/07/27 09:35:34;;;;;;;2.13;1.60;;;21.60;50.30;22.30;101196.00;;;;5071326;28;20875;-41
2022/07/27 09:38:22;;;;;;;2.13;1.50;;;21.60;50.20;22.30;101186.00;;;;5070857;28;20235;-42
2022/07/27 09:41:17;;;;;;;3.87;1.70;;;21.60;50.40;22.30;101187.00;;;;5070830;28;20183;-41
2022/07/27 09:43:49;;;;;;;2.10;1.70;;;21.60;50.20;22.30;101179.00;;;;5057892;28;20663;-41
2022/07/27 09:46:15;;;;;;;2.50;1.73;;;21.60;50.30;22.30;101183.00;;;;5071063;28;20181;-40
2022/07/27 09:48:40;;;;;;;7.23;1.90;;;21.60;50.30;22.30;101188.00;;;;5070168;28;20278;-41
2022/07/27 09:51:09;;;;;;;4.07;1.70;;;21.60;50.20;22.30;101184.00;;;;5069694;28;20624;-42
2022/07/27 09:53:35;;;;;;;2.70;1.80;;;21.60;50.20;22.10;101177.00;;;;5070811;28;20178;-41
2022/07/27 09:56:08;;;;;;;4.10;1.87;;;21.50;49.70;22.30;101178.00;;;;5089444;28;20253;-41
2022/07/27 09:58:50;;;;;;;3.07;1.87;;;21.60;50.30;22.30;101188.00;;;;5090566;28;20768;-41
2022/07/27 10:01:20;;;;;;;3.03;1.90;;;21.50;49.90;22.30;101193.00;;;;5089487;28;20171;-41
2022/07/27 10:03:49;;;;;;;4.27;1.90;;;21.50;50.00;22.30;101178.00;;;;5090657;28;20198;-40
2022/07/27 10:06:15;;;;;;;2.90;2.00;;;21.60;49.90;22.30;101192.00;;;;5078652;28;20170;-42
2022/07/27 10:08:45;;;;;;;2.30;1.70;;;21.60;50.10;22.30;101184.00;;;;5069304;28;20200;-41
2022/07/27 10:11:11;;;;;;;2.10;1.77;;;21.60;49.90;22.30;101188.00;;;;4992206;28;20195;-42
2022/07/27 10:13:37;;;;;;;3.77;1.77;;;21.50;49.60;22.30;101196.00;;;;5069765;28;20204;-41
2022/07/27 10:16:04;;;;;;;2.10;1.80;;;21.60;49.80;22.30;101177.00;;;;5070079;28;20169;-40
2022/07/27 10:19:05;;;;;;;2.60;1.70;;;21.60;49.80;22.40;101184.00;;;;5052096;28;20202;-41
2022/07/27 10:21:37;;;;;;;2.50;1.73;;;21.80;49.90;22.40;101181.00;;;;5069697;28;20778;-41
2022/07/27 10:24:36;;;;;;;2.40;1.70;;;21.80;49.70;22.40;101198.00;;;;5052215;28;20257;-41
2022/07/27 10:27:36;;;;;;;2.60;1.90;;;21.80;49.80;22.40;101190.00;;;;5069747;28;20154;-42
2022/07/27 10:30:03;;;;;;;2.50;1.97;;;21.70;49.70;22.40;101195.00;;;;5026217;28;20228;-41
2022/07/27 10:32:31;;;;;;;3.37;2.10;;;21.70;49.80;22.40;101192.00;;;;5051648;28;20204;-41
2022/07/27 10:34:56;;;;;;;2.47;1.93;;;21.60;49.70;22.40;101190.00;;;;5069636;28;20170;-41
2022/07/27 10:37:30;;;;;;;2.27;2.07;;;21.60;50.00;22.40;101197.00;;;;5069287;28;20698;-42
2022/07/27 10:42:44;;;;;;;4.03;2.20;;;21.80;49.80;22.50;101190.00;;;;5093892;28;20165;-41
2022/07/27 10:45:11;;;;;;;3.23;2.13;;;21.80;49.80;22.50;101200.00;;;;5090753;28;20567;-42
2022/07/27 10:47:45;;;;;;;2.57;2.00;;;21.80;49.60;22.50;101194.00;;;;5069722;28;20197;-42
2022/07/27 10:50:14;;;;;;;3.60;2.37;;;21.80;49.50;22.60;101189.00;;;;5069522;28;20855;-42
2022/07/27 10:53:06;;;;;;;3.37;2.10;;;21.90;49.70;22.60;101181.00;;;;5069522;28;20173;-42
2022/07/27 10:55:33;;;;;;;3.43;2.20;;;21.90;50.10;22.70;101182.00;;;;5065911;28;20216;-42
2022/07/27 10:58:02;;;;;;;5.33;2.10;;;21.90;49.90;22.70;101177.00;;;;5069192;28;20274;-43